METAR Data
IDs: Format: Raw Decoded Include TAF

Data at: 0524 UTC 26 May 2022

KERV 260515Z AUTO 34003KT 10SM CLR 13/10 A3002 RMK AO2 T01330098
KERV 260455Z AUTO 36004KT 10SM CLR 14/10 A3001 RMK AO2 T01350100
KERV 260435Z AUTO 01003KT 10SM CLR 15/10 A3001 RMK AO2 T01460095
KERV 260415Z AUTO 00000KT 10SM CLR 16/10 A3000 RMK AO2 T01570103
KERV 260355Z AUTO 00000KT 10SM CLR 18/10 A3000 RMK AO2 T01760098
KERV 260335Z AUTO 00000KT 10SM CLR 18/11 A2999 RMK AO2 T01810105
KERV 260315Z AUTO 00000KT 10SM CLR 18/11 A2998 RMK AO2 T01810111
KERV 260255Z AUTO 00000KT 10SM CLR 19/09 A2997 RMK AO2 T01860091
KERV 260235Z AUTO 00000KT 10SM CLR 19/09 A2996 RMK AO2 T01910093
KERV 260215Z AUTO 02003KT 10SM CLR 19/10 A2995 RMK AO2 T01940098
KERV 260155Z AUTO 03003KT 10SM CLR 22/07 A2994 RMK AO2 T02210074
KERV 260135Z AUTO 04004KT 10SM CLR 24/07 A2993 RMK AO2 T02350071

KT82 260510Z AUTO 00000KT 10SM CLR 15/11 A3001 RMK AO2 T01460114
KT82 260450Z AUTO 00000KT 10SM CLR 15/11 A3001 RMK AO2 T01460111
KT82 260430Z AUTO 36003KT 10SM CLR 15/11 A3000 RMK AO2 T01490112
KT82 260410Z AUTO 34003KT 10SM CLR 16/11 A3000 RMK AO2 T01610113
KT82 260350Z AUTO 01003KT 10SM CLR 16/12 A3000 RMK AO2 T01590120
KT82 260330Z AUTO 00000KT 10SM CLR 17/12 A3000 RMK AO2 T01720116
KT82 260310Z AUTO 00000KT 10SM CLR 18/11 A2999 RMK AO2 T01810106
KT82 260250Z AUTO 00000KT 10SM CLR 18/11 A2998 RMK AO2 T01810108
KT82 260230Z AUTO 00000KT 10SM CLR 19/10 A2997 RMK AO2 T01850096
KT82 260210Z AUTO 02006KT 10SM CLR 20/08 A2996 RMK AO2 T01950083
KT82 260150Z AUTO 02003KT 10SM CLR 20/09 A2995 RMK AO2 T02010085
KT82 260130Z AUTO 01004KT 10SM CLR 21/08 A2994 RMK AO2 T02120080

KHDO 260451Z AUTO 03004KT 10SM CLR 18/15 A2997 RMK AO2 SLP136 T01780150
KHDO 260351Z AUTO 06004KT 10SM CLR 20/14 A2997 RMK AO2 SLP134 T02000144
KHDO 260251Z AUTO 00000KT 10SM CLR 23/12 A2993 RMK AO2 SLP122 T02330122 53025
KHDO 260151Z AUTO 09004KT 10SM CLR 25/11 A2990 RMK AO2 SLP111 T02500111

KCVB 260516Z AUTO 32004KT 10SM CLR 19/14 A2999 RMK AO2
KCVB 260456Z AUTO 00000KT 10SM CLR 20/14 A2998 RMK AO2

KJCT 260451Z AUTO 22003KT 10SM CLR 16/11 A3001 RMK AO2 SLP133 T01610106
KJCT 260351Z AUTO 31003KT 10SM CLR 17/10 A3001 RMK AO2 SLP133 T01720100
KJCT 260251Z AUTO 00000KT 10SM CLR 19/09 A2998 RMK AO2 SLP122 T01890094 53021
KJCT 260151Z AUTO 01005KT 10SM CLR 23/07 A2995 RMK AO2 SLP112 T02280067